Time;durP1;ratioP1;P1;durP2;ratioP2;P2;SDS_P1;SDS_P2;PMS_P1;PMS_P2;Temp;Humidity;BMP_temperature;BMP_pressure;BME280_temperature;BME280_humidity;BME280_pressure;Samples;Min_cycle;Max_cycle;Signal;HPM_P1;HPM_P2
2022/01/25 00:26:05;;;;;;;49.40;24.17;;;;;;;3.08;80.96;103373.75;5050497;28;20106;-80
2022/01/25 00:33:35;;;;;;;48.63;24.40;;;;;;;3.07;80.03;103382.31;5051252;28;20361;-80
2022/01/25 00:36:03;;;;;;;54.10;25.60;;;;;;;3.08;80.55;103378.88;5054576;28;20427;-80
2022/01/25 00:38:28;;;;;;;49.67;25.23;;;;;;;3.08;80.12;103372.88;5054343;28;20020;-80
2022/01/25 00:40:54;;;;;;;51.47;24.80;;;;;;;3.08;80.04;103378.88;5053548;28;20031;-80
2022/01/25 00:43:22;;;;;;;49.77;24.50;;;;;;;3.07;80.18;103376.25;5054335;28;20021;-80
2022/01/25 00:45:48;;;;;;;52.43;24.70;;;;;;;3.06;80.45;103375.41;5054152;28;20028;-80
2022/01/25 00:48:19;;;;;;;53.83;24.57;;;;;;;3.04;80.31;103377.88;5054480;28;20051;-80
2022/01/25 00:50:45;;;;;;;49.13;24.47;;;;;;;3.06;80.67;103371.94;5053549;28;20460;-80
2022/01/25 00:55:54;;;;;;;50.07;23.37;;;;;;;3.06;80.33;103370.25;5054030;28;20088;-80
2022/01/25 00:58:20;;;;;;;49.83;24.60;;;;;;;3.04;80.86;103377.00;5053895;28;20029;-80
2022/01/25 01:00:45;;;;;;;52.30;24.43;;;;;;;3.03;80.37;103375.25;5053150;28;20020;-80
2022/01/25 01:03:10;;;;;;;57.97;26.93;;;;;;;3.02;80.29;103370.91;5053700;28;20025;-80
2022/01/25 01:05:37;;;;;;;52.13;25.43;;;;;;;3.02;80.42;103373.47;5052802;28;20025;-81
2022/01/25 01:08:03;;;;;;;53.20;25.57;;;;;;;3.01;80.41;103364.00;5053841;28;20055;-80
2022/01/25 01:10:28;;;;;;;54.17;25.33;;;;;;;3.02;80.38;103370.91;5053191;28;20052;-80
2022/01/25 01:13:25;;;;;;;49.63;23.90;;;;;;;2.99;80.49;103363.91;5052198;28;20025;-80
2022/01/25 01:16:39;;;;;;;52.93;24.07;;;;;;;2.98;81.13;103362.19;5053643;28;20128;-80
2022/01/25 01:29:21;;;;;;;50.03;23.90;;;;;;;3.01;80.79;103366.56;5052001;28;20060;-80
2022/01/25 01:32:15;;;;;;;50.07;23.87;;;;;;;3.02;80.59;103368.34;5053257;28;20024;-80
2022/01/25 01:35:24;;;;;;;52.40;24.73;;;;;;;3.03;79.77;103372.69;5053611;28;20052;-80
2022/01/25 01:38:02;;;;;;;54.37;25.03;;;;;;;3.03;80.35;103370.97;5053159;28;20471;-80
2022/01/25 01:48:31;;;;;;;43.47;20.70;;;;;;;3.02;80.97;103378.63;5052980;28;20090;-80
2022/01/25 01:51:16;;;;;;;41.23;21.00;;;;;;;3.00;81.25;103373.41;5052488;28;20024;-80
2022/01/25 01:53:43;;;;;;;42.10;20.30;;;;;;;3.03;81.14;103380.38;5051544;28;20075;-80
2022/01/25 01:56:08;;;;;;;46.50;22.13;;;;;;;3.04;81.02;103377.00;5052958;28;20032;-80
2022/01/25 01:58:35;;;;;;;48.50;23.47;;;;;;;3.05;80.80;103378.78;5051539;28;20053;-80
2022/01/25 02:01:01;;;;;;;48.37;23.50;;;;;;;3.04;80.73;103377.00;5051979;28;20020;-80
2022/01/25 02:03:26;;;;;;;43.77;22.07;;;;;;;3.04;80.59;103379.59;5052732;28;20082;-80
2022/01/25 02:05:52;;;;;;;45.77;22.30;;;;;;;3.04;80.83;103372.72;5053065;28;20043;-80
2022/01/25 02:08:17;;;;;;;51.40;24.37;;;;;;;3.05;80.84;103373.63;5052289;28;20023;-80
2022/01/25 02:10:43;;;;;;;51.53;24.53;;;;;;;3.08;80.72;103380.59;5053054;28;20028;-80
2022/01/25 02:13:09;;;;;;;50.90;24.37;;;;;;;3.05;81.08;103373.63;5052801;28;20020;-80
2022/01/25 02:15:39;;;;;;;48.57;23.87;;;;;;;3.05;81.31;103363.34;5051415;28;20591;-80
2022/01/25 02:23:37;;;;;;;55.37;25.20;;;;;;;3.03;80.95;103360.69;5052786;28;20075;-80
2022/01/25 02:26:06;;;;;;;49.30;22.97;;;;;;;3.04;81.04;103361.59;5052690;28;20056;-80
2022/01/25 02:28:35;;;;;;;44.80;21.93;;;;;;;3.05;81.52;103358.19;5052057;28;20033;-80
2022/01/25 02:31:01;;;;;;;46.37;21.93;;;;;;;3.08;81.70;103347.16;5052139;28;20053;-80
2022/01/25 02:33:27;;;;;;;42.67;20.73;;;;;;;3.08;82.07;103348.03;5051809;28;20099;-80
2022/01/25 02:35:54;;;;;;;47.37;22.83;;;;;;;3.08;81.52;103348.03;5052580;28;20136;-80
2022/01/25 02:38:22;;;;;;;44.33;21.37;;;;;;;3.06;81.57;103349.69;5051731;28;20036;-80
2022/01/25 02:40:48;;;;;;;44.83;21.30;;;;;;;3.06;81.88;103341.97;5051869;28;20075;-80
2022/01/25 02:43:16;;;;;;;46.92;22.58;;;;;;;3.06;81.38;103339.38;5051725;28;20483;-80
2022/01/25 02:45:45;;;;;;;48.03;23.03;;;;;;;3.06;81.46;103344.53;5050342;28;20083;-80
2022/01/25 02:51:08;;;;;;;47.33;23.03;;;;;;;3.07;81.37;103351.44;5031669;28;20036;-80
2022/01/25 02:53:34;;;;;;;51.00;24.37;;;;;;;3.08;81.35;103353.16;5051542;28;20028;-80
2022/01/25 02:55:59;;;;;;;50.40;24.47;;;;;;;3.07;81.31;103346.28;5050860;28;20056;-80
2022/01/25 02:58:24;;;;;;;51.97;24.00;;;;;;;3.04;81.29;103346.16;5050857;28;20032;-80
2022/01/25 03:00:50;;;;;;;52.13;24.93;;;;;;;3.04;81.34;103351.28;5051891;28;20025;-80
2022/01/25 03:03:15;;;;;;;55.80;25.47;;;;;;;3.04;80.99;103351.28;5051401;28;20033;-80
2022/01/25 03:05:41;;;;;;;55.03;25.00;;;;;;;3.03;81.41;103349.53;5064282;28;20039;-80
2022/01/25 03:08:11;;;;;;;54.23;24.40;;;;;;;3.01;81.46;103349.44;5051416;28;20110;-80
2022/01/25 03:10:39;;;;;;;56.80;26.17;;;;;;;3.01;80.80;103343.44;5049976;28;20108;-80
2022/01/25 03:13:08;;;;;;;54.77;25.30;;;;;;;3.02;81.65;103340.06;5051508;28;20024;-80
2022/01/25 03:18:40;;;;;;;52.33;23.70;;;;;;;3.02;81.33;103332.34;5051372;28;20033;-80
2022/01/25 03:21:18;;;;;;;47.00;22.10;;;;;;;3.03;81.41;103324.69;5050103;28;20039;-80
2022/01/25 03:23:44;;;;;;;53.03;23.90;;;;;;;3.05;81.14;103322.19;5050301;28;20340;-80
2022/01/25 03:26:09;;;;;;;53.23;24.00;;;;;;;3.04;81.10;103310.16;5051232;28;20176;-80
2022/01/25 03:28:35;;;;;;;53.63;24.75;;;;;;;3.02;80.56;103306.63;5051530;28;20546;-80
2022/01/25 03:31:00;;;;;;;50.03;24.03;;;;;;;3.00;81.37;103310.81;5051408;28;20036;-80
2022/01/25 03:33:26;;;;;;;57.90;23.97;;;;;;;2.99;81.08;103304.75;5050973;28;20448;-80
2022/01/25 03:35:52;;;;;;;50.53;23.50;;;;;;;3.00;81.42;103303.97;5051382;28;20029;-80
2022/01/25 03:38:18;;;;;;;50.03;23.93;;;;;;;3.02;81.25;103304.03;5051676;28;20068;-80
2022/01/25 03:40:44;;;;;;;55.53;24.97;;;;;;;3.02;81.35;103306.63;5051577;28;20111;-80
2022/01/25 03:43:10;;;;;;;55.63;25.77;;;;;;;3.02;81.11;103317.78;5051546;28;20021;-80
2022/01/25 03:45:38;;;;;;;57.00;26.17;;;;;;;3.02;80.50;103319.47;5050661;28;20040;-80
2022/01/25 03:50:40;;;;;;;51.27;24.17;;;;;;;3.00;80.58;103314.25;5050657;28;20025;-80
2022/01/25 03:53:06;;;;;;;57.90;26.60;;;;;;;3.00;80.07;103314.25;5051427;28;20072;-80
2022/01/25 03:55:32;;;;;;;55.33;25.95;;;;;;;3.02;80.68;103319.47;5050574;28;20041;-80
2022/01/25 03:57:57;;;;;;;56.17;26.40;;;;;;;3.03;80.95;103316.09;5051010;28;20025;-80
2022/01/25 04:00:23;;;;;;;52.47;25.17;;;;;;;3.04;81.02;103315.28;5050518;28;20048;-80
2022/01/25 04:02:54;;;;;;;55.97;26.20;;;;;;;3.06;81.09;103316.25;5049793;28;20029;-80
2022/01/25 04:05:24;;;;;;;51.15;23.73;;;;;;;3.03;81.08;103324.69;5049382;28;20384;-80
2022/01/25 04:07:50;;;;;;;50.60;23.33;;;;;;;2.99;81.44;103329.63;5051055;28;20104;-80
2022/01/25 04:10:18;;;;;;;55.97;25.50;;;;;;;2.99;80.93;103332.19;5053906;28;20025;-80
2022/01/25 04:12:45;;;;;;;50.77;24.03;;;;;;;2.99;81.13;103335.63;5054412;28;20488;-80
2022/01/25 04:15:10;;;;;;;54.93;25.13;;;;;;;3.02;80.72;103340.06;5061067;28;20021;-80
2022/01/25 04:17:36;;;;;;;54.60;24.73;;;;;;;3.01;80.67;103330.56;5054750;28;20320;-80
2022/01/25 04:20:23;;;;;;;55.47;24.30;;;;;;;3.00;80.96;103323.66;5053913;28;20045;-80
2022/01/25 04:25:32;;;;;;;51.70;23.33;;;;;;;2.98;80.66;103331.31;5054164;28;20040;-80
2022/01/25 04:27:58;;;;;;;55.03;25.52;;;;;;;2.99;80.33;103316.75;5054881;28;20040;-80
2022/01/25 04:30:24;;;;;;;56.80;24.27;;;;;;;3.01;80.76;103320.28;5054623;28;20021;-80
2022/01/25 04:32:56;;;;;;;54.77;25.87;;;;;;;3.01;80.62;103312.56;5053771;28;20131;-80
2022/01/25 04:49:01;;;;;;;54.27;24.73;;;;;;;2.99;81.42;103319.34;5054438;28;20495;-80
2022/01/25 04:52:13;;;;;;;52.73;25.23;;;;;;;2.99;81.40;103306.47;5052414;28;20364;-80
2022/01/25 04:54:36;;;;;;;56.50;25.03;;;;;;;2.98;81.21;103305.59;5050128;28;20064;-80
2022/01/25 05:00:02;;;;;;;57.17;25.95;;;;;;;2.97;80.92;103308.09;5053019;28;20037;-80
2022/01/25 05:02:47;;;;;;;55.15;25.20;;;;;;;2.96;81.17;103311.47;5052249;28;20017;-80
2022/01/25 05:05:29;;;;;;;60.37;26.13;;;;;;;2.94;81.24;103308.84;5053943;28;20033;-80
2022/01/25 05:08:05;;;;;;;56.07;26.13;;;;;;;2.97;80.69;103302.94;5052538;28;20464;-80
2022/01/25 05:10:34;;;;;;;54.30;25.20;;;;;;;2.99;81.47;103303.91;5051219;28;20043;-80
2022/01/25 05:18:16;;;;;;;54.07;24.63;;;;;;;3.00;81.92;103300.53;5053067;28;20035;-80
2022/01/25 05:23:25;;;;;;;56.63;25.80;;;;;;;3.02;81.74;103304.91;5053712;28;20039;-80
2022/01/25 05:25:50;;;;;;;56.63;24.97;;;;;;;3.00;81.68;103303.09;5053026;28;20121;-80
2022/01/25 05:28:16;;;;;;;57.20;25.63;;;;;;;2.98;81.50;103299.56;5053674;28;20103;-80
2022/01/25 05:30:41;;;;;;;56.30;23.97;;;;;;;2.99;81.80;103298.75;5052734;28;20024;-80
2022/01/25 05:33:06;;;;;;;58.00;25.50;;;;;;;2.96;81.68;103301.19;5053210;28;20029;-80
2022/01/25 05:35:32;;;;;;;57.90;25.87;;;;;;;2.97;81.69;103302.94;5053263;28;20059;-80
2022/01/25 05:37:57;;;;;;;54.90;24.93;;;;;;;2.97;82.00;103300.38;5053309;28;20035;-80
2022/01/25 05:40:45;;;;;;;52.90;23.77;;;;;;;2.95;82.31;103300.31;5052843;28;20029;-80
2022/01/25 05:48:22;;;;;;;56.17;26.03;;;;;;;2.94;81.98;103302.81;5053069;28;20045;-80
2022/01/25 05:50:47;;;;;;;61.53;26.27;;;;;;;2.93;81.75;103296.78;5052896;28;20447;-80
2022/01/25 05:53:12;;;;;;;60.23;27.03;;;;;;;2.92;81.83;103300.16;5052846;28;20032;-80
2022/01/25 05:55:37;;;;;;;58.03;25.70;;;;;;;2.94;81.39;103307.94;5052536;28;20037;-80
2022/01/25 05:58:03;;;;;;;59.20;26.83;;;;;;;2.94;81.37;103310.50;5052875;28;20036;-80
2022/01/25 06:00:28;;;;;;;60.47;26.13;;;;;;;2.93;81.69;103301.94;5060059;28;20020;-80
2022/01/25 06:02:55;;;;;;;60.17;27.23;;;;;;;2.95;81.72;103304.56;5052613;28;20106;-80
2022/01/25 06:05:23;;;;;;;59.93;25.93;;;;;;;2.94;81.87;103300.22;5052312;28;20020;-79
2022/01/25 06:07:49;;;;;;;56.73;26.10;;;;;;;2.96;81.91;103298.63;5051981;28;20029;-80
2022/01/25 06:10:14;;;;;;;59.63;26.17;;;;;;;2.96;82.09;103288.31;5052289;28;20029;-80
2022/01/25 06:12:42;;;;;;;61.77;27.77;;;;;;;2.94;81.79;103288.28;5052592;28;20457;-80
2022/01/25 06:15:08;;;;;;;57.00;26.53;;;;;;;2.97;81.68;103291.00;5051481;28;20096;-80
2022/01/25 06:17:33;;;;;;;57.93;26.13;;;;;;;2.98;81.60;103289.28;5052220;28;20162;-80
2022/01/25 06:19:58;;;;;;;58.33;26.67;;;;;;;2.97;81.67;103282.38;5052580;28;20064;-80
2022/01/25 06:22:24;;;;;;;58.97;27.60;;;;;;;2.96;80.92;103288.31;5052124;28;20033;-80
2022/01/25 06:24:49;;;;;;;60.53;27.20;;;;;;;2.97;81.36;103288.41;5052270;28;20381;-80
2022/01/25 06:27:14;;;;;;;60.27;27.83;;;;;;;2.97;81.95;103297.81;5052254;28;20386;-80
2022/01/25 06:29:40;;;;;;;63.17;28.30;;;;;;;2.97;81.07;103292.66;5051790;28;20025;-79
2022/01/25 06:32:06;;;;;;;65.40;28.13;;;;;;;2.96;80.83;103290.91;5052166;28;20025;-80
2022/01/25 06:34:31;;;;;;;58.97;27.73;;;;;;;2.97;80.81;103288.41;5052280;28;20032;-80
2022/01/25 06:36:57;;;;;;;61.00;28.27;;;;;;;2.97;81.08;103290.09;5052141;28;20617;-80
2022/01/25 06:39:22;;;;;;;58.57;27.70;;;;;;;2.97;80.74;103292.66;5052282;28;20029;-80
2022/01/25 06:41:47;;;;;;;60.43;27.80;;;;;;;2.95;80.79;103292.59;5051607;28;20036;-80
2022/01/25 06:44:13;;;;;;;56.63;27.00;;;;;;;2.96;81.39;103293.47;5051545;28;20476;-80
2022/01/25 06:46:38;;;;;;;65.90;28.20;;;;;;;2.98;81.25;103294.44;5051729;28;20021;-80
2022/01/25 06:49:04;;;;;;;62.67;28.23;;;;;;;2.99;80.80;103296.19;5051827;28;20472;-80
2022/01/25 06:51:30;;;;;;;59.77;27.47;;;;;;;3.01;80.77;103299.72;5050500;28;20025;-80
2022/01/25 06:53:55;;;;;;;64.40;27.27;;;;;;;3.02;80.47;103304.03;5051769;28;20031;-80
2022/01/25 06:56:20;;;;;;;55.03;26.17;;;;;;;3.03;80.94;103298.09;5051323;28;20498;-80
2022/01/25 06:58:46;;;;;;;56.27;26.33;;;;;;;3.04;81.29;103307.56;5051680;28;20021;-80
2022/01/25 07:01:11;;;;;;;58.07;27.03;;;;;;;3.02;81.20;103304.03;5051228;28;20087;-80
2022/01/25 07:03:36;;;;;;;58.97;26.40;;;;;;;2.99;81.01;103311.63;5050824;28;20419;-80
2022/01/25 07:06:02;;;;;;;53.73;25.50;;;;;;;3.00;81.19;103305.66;5048311;28;20079;-80
2022/01/25 07:08:27;;;;;;;60.63;27.87;;;;;;;3.00;80.44;103309.09;5054720;28;20020;-79
2022/01/25 07:10:53;;;;;;;58.57;28.03;;;;;;;3.01;80.97;103315.13;5054907;28;20021;-80
2022/01/25 07:13:19;;;;;;;60.93;27.50;;;;;;;3.02;80.88;103315.19;5051378;28;20020;-80
2022/01/25 07:15:44;;;;;;;60.90;28.87;;;;;;;3.02;80.72;103316.91;5050337;28;20549;-80
2022/01/25 07:18:09;;;;;;;59.13;26.90;;;;;;;3.03;81.29;103318.66;5048899;28;20032;-80
2022/01/25 07:20:34;;;;;;;61.87;27.53;;;;;;;3.04;81.09;103315.28;5049782;28;20492;-80
2022/01/25 07:23:00;;;;;;;59.40;27.63;;;;;;;3.03;80.94;103313.53;5048495;28;20533;-79
2022/01/25 07:25:26;;;;;;;58.23;26.97;;;;;;;3.03;81.35;103316.09;5050090;28;20036;-80
2022/01/25 07:27:51;;;;;;;60.07;27.77;;;;;;;3.04;81.27;103320.44;5059563;28;20020;-79
2022/01/25 07:30:17;;;;;;;59.73;27.10;;;;;;;3.04;80.91;103315.28;5057461;28;20055;-79
2022/01/25 07:32:42;;;;;;;61.60;28.13;;;;;;;3.07;80.62;103317.09;5056642;28;20383;-78
2022/01/25 07:35:08;;;;;;;56.73;26.27;;;;;;;3.08;81.10;103317.16;5058069;28;20056;-79
2022/01/25 07:37:33;;;;;;;58.10;27.23;;;;;;;3.08;80.92;103317.16;5058904;28;20106;-80
2022/01/25 07:39:59;;;;;;;60.27;28.30;;;;;;;3.07;80.74;103320.56;5058415;28;20024;-79
2022/01/25 07:42:27;;;;;;;58.53;27.60;;;;;;;3.07;80.69;103323.16;5059617;28;20033;-79
2022/01/25 07:44:52;;;;;;;62.43;28.30;;;;;;;3.07;80.34;103325.72;5058801;28;20577;-79
2022/01/25 07:47:17;;;;;;;62.57;28.63;;;;;;;3.07;80.92;103320.56;5059122;28;20120;-78
2022/01/25 07:49:42;;;;;;;60.50;27.10;;;;;;;3.08;80.73;103312.03;5057811;28;20032;-78
2022/01/25 07:52:08;;;;;;;59.00;27.20;;;;;;;3.09;81.26;103312.91;5056361;28;20479;-79
2022/01/25 07:54:33;;;;;;;57.70;26.40;;;;;;;3.09;80.63;103318.94;5059330;28;20132;-80
2022/01/25 07:56:59;;;;;;;60.73;27.80;;;;;;;3.10;80.65;103314.69;5056290;28;20091;-79
2022/01/25 07:59:24;;;;;;;61.10;29.73;;;;;;;3.09;80.18;103311.22;5056026;28;20107;-80
2022/01/25 08:01:51;;;;;;;60.38;29.13;;;;;;;3.09;80.04;103318.06;5054171;28;20055;-79
2022/01/25 08:04:17;;;;;;;65.93;29.70;;;;;;;3.09;79.97;103315.50;5054814;28;20032;-79
2022/01/25 08:06:42;;;;;;;62.23;27.83;;;;;;;3.09;80.73;103318.06;5055240;28;20032;-79
2022/01/25 08:09:09;;;;;;;62.40;29.30;;;;;;;3.08;79.95;103317.16;5060375;28;20047;-79
2022/01/25 08:11:35;;;;;;;61.97;29.07;;;;;;;3.09;80.16;103325.78;5055822;28;20546;-78
2022/01/25 08:14:12;;;;;;;68.90;31.60;;;;;;;3.07;79.16;103324.81;5059103;28;20029;-80
2022/01/25 08:16:46;;;;;;;73.20;32.63;;;;;;;3.06;79.09;103323.06;5057152;28;20083;-80
2022/01/25 08:19:12;;;;;;;67.17;31.30;;;;;;;3.05;79.52;103322.19;5057212;28;20080;-79
2022/01/25 08:21:40;;;;;;;73.77;32.60;;;;;;;3.08;79.03;103324.88;5057747;28;20033;-79
2022/01/25 08:24:09;;;;;;;70.53;31.70;;;;;;;3.09;78.97;103318.06;5056777;28;20479;-78
2022/01/25 08:26:35;;;;;;;72.93;33.00;;;;;;;3.11;79.49;103326.72;5054131;28;20403;-78
2022/01/25 08:29:00;;;;;;;69.47;30.10;;;;;;;3.12;79.22;103324.22;5057282;28;20032;-79
2022/01/25 08:31:26;;;;;;;70.50;32.97;;;;;;;3.14;78.47;103327.75;5056320;28;20082;-79
2022/01/25 08:33:52;;;;;;;66.43;30.87;;;;;;;3.14;77.93;103327.75;5058313;28;20056;-78
2022/01/25 08:36:17;;;;;;;67.90;32.00;;;;;;;3.16;78.89;103325.25;5055194;28;20028;-79
2022/01/25 08:38:43;;;;;;;71.70;31.67;;;;;;;3.18;78.05;103331.31;5055851;28;20433;-79
2022/01/25 08:41:08;;;;;;;70.30;31.97;;;;;;;3.19;77.93;103331.41;5056237;28;20624;-80
2022/01/25 08:43:34;;;;;;;70.20;31.70;;;;;;;3.21;78.46;103334.03;5058242;28;20029;-78
2022/01/25 08:46:00;;;;;;;65.57;30.43;;;;;;;3.22;78.15;103332.38;5056566;28;20028;-79
2022/01/25 08:48:25;;;;;;;69.90;32.13;;;;;;;3.23;77.63;103334.13;5055385;28;20033;-79
2022/01/25 08:50:51;;;;;;;72.07;32.30;;;;;;;3.24;77.28;103333.31;5056030;28;20463;-79
2022/01/25 08:53:17;;;;;;;69.53;32.00;;;;;;;3.24;77.64;103330.75;5051679;28;20064;-80
2022/01/25 08:55:42;;;;;;;70.70;31.40;;;;;;;3.25;77.33;103340.19;5054679;28;20064;-78
2022/01/25 08:58:08;;;;;;;66.47;31.17;;;;;;;3.25;77.71;103338.53;5053671;28;20091;-79
2022/01/25 09:00:33;;;;;;;66.53;31.70;;;;;;;3.28;78.11;103337.78;5055098;28;20029;-79
2022/01/25 09:03:00;;;;;;;71.33;33.30;;;;;;;3.28;77.35;103343.81;5055749;28;20038;-78
2022/01/25 09:05:28;;;;;;;64.67;29.43;;;;;;;3.28;77.15;103342.91;5056673;28;20206;-79
2022/01/25 09:07:56;;;;;;;75.33;32.43;;;;;;;3.26;77.50;103342.84;5054881;28;20086;-78
2022/01/25 09:10:28;;;;;;;71.57;32.08;;;;;;;3.26;76.30;103347.09;5057481;28;20055;-78
2022/01/25 09:12:54;;;;;;;70.18;32.08;;;;;;;3.25;76.10;103350.50;5059096;28;20029;-78
2022/01/25 09:15:20;;;;;;;72.03;32.20;;;;;;;3.27;75.75;103344.63;5056352;28;20077;-78
2022/01/25 09:17:46;;;;;;;75.07;32.50;;;;;;;3.31;76.45;103350.78;5054946;28;20032;-79
2022/01/25 09:20:11;;;;;;;67.50;31.60;;;;;;;3.32;76.25;103347.41;5057251;28;20044;-79
2022/01/25 09:22:37;;;;;;;69.27;31.50;;;;;;;3.35;76.95;103342.41;5055871;28;20036;-79
2022/01/25 09:25:03;;;;;;;66.97;31.33;;;;;;;3.36;76.45;103339.00;5057853;28;20042;-79
2022/01/25 09:27:28;;;;;;;71.97;33.07;;;;;;;3.38;75.56;103341.63;5057213;28;20028;-80
2022/01/25 09:29:53;;;;;;;72.40;31.80;;;;;;;3.41;76.39;103344.34;5059516;28;20039;-79
2022/01/25 09:32:21;;;;;;;68.83;31.87;;;;;;;3.40;75.13;103348.63;5058380;28;20487;-79
2022/01/25 09:34:47;;;;;;;71.40;31.97;;;;;;;3.39;75.58;103353.69;5059231;28;20032;-79
2022/01/25 09:37:12;;;;;;;70.57;33.17;;;;;;;3.38;75.41;103357.06;5058924;28;20098;-79
2022/01/25 09:39:41;;;;;;;70.70;31.67;;;;;;;3.35;74.56;103357.84;5057298;28;20040;-79
2022/01/25 09:42:10;;;;;;;67.20;30.80;;;;;;;3.35;74.50;103355.25;5053074;28;20044;-78
2022/01/25 09:44:37;;;;;;;70.07;31.57;;;;;;;3.37;75.46;103350.16;5056720;28;20032;-80
2022/01/25 09:47:04;;;;;;;71.13;32.23;;;;;;;3.41;75.31;103363.25;5060061;28;20036;-80
2022/01/25 09:49:31;;;;;;;72.13;32.27;;;;;;;3.42;75.48;103362.41;5060067;28;20093;-80
2022/01/25 09:51:58;;;;;;;76.85;34.45;;;;;;;3.43;75.57;103365.91;5059251;28;20044;-79
2022/01/25 09:54:26;;;;;;;72.70;32.88;;;;;;;3.42;75.19;103359.84;5061601;28;20077;-80
2022/01/25 09:56:51;;;;;;;77.85;34.38;;;;;;;3.44;74.65;103370.22;5054525;28;20085;-80
2022/01/25 09:59:16;;;;;;;77.30;33.70;;;;;;;3.45;74.96;103366.84;5058048;28;21305;-80
2022/01/25 10:01:42;;;;;;;77.50;34.03;;;;;;;3.47;75.44;103373.81;5060730;28;20032;-80
2022/01/25 10:04:28;;;;;;;77.20;33.73;;;;;;;3.50;75.54;103367.94;5058801;28;20108;-78
2022/01/25 10:06:54;;;;;;;77.30;33.33;;;;;;;3.49;75.22;103367.03;5058732;28;20407;-78
2022/01/25 10:09:20;;;;;;;77.87;33.63;;;;;;;3.52;74.59;103378.28;5056948;28;20074;-78
2022/01/25 10:11:46;;;;;;;76.22;33.67;;;;;;;3.53;74.37;103377.47;5059285;28;20021;-78
2022/01/25 10:14:11;;;;;;;74.27;32.20;;;;;;;3.54;74.79;103376.69;5058405;28;20370;-78
2022/01/25 10:16:38;;;;;;;73.80;32.30;;;;;;;3.53;73.99;103377.47;5054790;28;20222;-78
2022/01/25 10:19:08;;;;;;;72.07;32.10;;;;;;;3.53;74.61;103369.75;5056979;28;20040;-78
2022/01/25 10:21:36;;;;;;;77.70;33.07;;;;;;;3.51;74.61;103374.81;5051787;28;20039;-78
2022/01/25 10:24:15;;;;;;;73.47;31.73;;;;;;;3.52;73.93;103380.88;5052648;28;20044;-78
2022/01/25 10:26:42;;;;;;;71.33;31.23;;;;;;;3.49;73.53;103376.47;5054963;28;20043;-78
2022/01/25 10:29:13;;;;;;;76.03;32.83;;;;;;;3.51;74.05;103373.97;5059394;28;20047;-78
2022/01/25 10:31:47;;;;;;;75.97;33.10;;;;;;;3.54;74.91;103376.69;5057855;28;20398;-79
2022/01/25 10:34:15;;;;;;;75.60;32.03;;;;;;;3.56;74.36;103372.47;5057841;28;20078;-78
2022/01/25 10:36:47;;;;;;;76.23;33.20;;;;;;;3.59;73.76;103375.16;5056903;28;20122;-78
2022/01/25 10:39:34;;;;;;;79.30;33.53;;;;;;;3.62;73.88;103367.56;5055573;28;20021;-79
2022/01/25 10:42:05;;;;;;;73.03;31.60;;;;;;;3.63;73.58;103367.66;5057676;28;20437;-79
2022/01/25 10:44:52;;;;;;;72.70;30.35;;;;;;;3.71;73.80;103368.00;5054387;28;20071;-79
2022/01/25 10:47:21;;;;;;;71.87;32.10;;;;;;;3.73;72.59;103361.22;5056633;28;20041;-78
2022/01/25 10:49:49;;;;;;;72.40;30.47;;;;;;;3.75;72.71;103369.00;5056835;28;20105;-78
2022/01/25 10:52:26;;;;;;;72.22;31.90;;;;;;;3.77;73.55;103362.22;5059052;28;20557;-78
2022/01/25 10:54:51;;;;;;;71.93;32.03;;;;;;;3.76;72.35;103363.91;5055884;28;20032;-79
2022/01/25 10:57:23;;;;;;;75.17;31.57;;;;;;;3.76;72.30;103366.47;5050783;28;20044;-78
2022/01/25 10:59:58;;;;;;;73.85;32.38;;;;;;;3.76;72.41;103366.47;5051465;28;20364;-79
2022/01/25 11:02:27;;;;;;;72.63;30.47;;;;;;;3.80;71.94;103359.78;5056291;28;20017;-79
2022/01/25 11:05:05;;;;;;;71.60;31.52;;;;;;;3.86;72.93;103361.75;5052846;28;20386;-79
2022/01/25 11:07:44;;;;;;;70.33;31.90;;;;;;;3.87;71.81;103364.38;5053166;28;20526;-78
2022/01/25 11:10:15;;;;;;;68.97;31.43;;;;;;;3.83;70.85;103361.63;5053577;28;20032;-79
2022/01/25 11:12:47;;;;;;;70.47;31.05;;;;;;;3.84;71.61;103358.22;5055434;28;20042;-79
2022/01/25 11:15:12;;;;;;;74.73;32.70;;;;;;;3.86;72.55;103369.47;5055666;28;20024;-79
2022/01/25 11:17:40;;;;;;;73.00;31.67;;;;;;;3.87;71.86;103369.53;5055798;28;20029;-78
2022/01/25 11:20:06;;;;;;;74.23;31.77;;;;;;;3.90;72.69;103364.50;5055744;28;20079;-79
2022/01/25 11:22:34;;;;;;;72.30;31.57;;;;;;;3.95;72.29;103363.03;5053556;28;20044;-80
2022/01/25 11:25:05;;;;;;;74.68;32.08;;;;;;;3.98;72.44;103367.41;5055469;28;20021;-79
2022/01/25 11:27:33;;;;;;;73.45;31.63;;;;;;;4.02;71.50;103373.56;5056234;28;20074;-78
2022/01/25 11:30:32;;;;;;;74.23;31.33;;;;;;;4.05;71.96;103366.88;5055626;28;20032;-79
2022/01/25 11:32:59;;;;;;;75.53;32.30;;;;;;;4.07;71.59;103362.66;5052714;28;20476;-79
2022/01/25 11:35:26;;;;;;;74.77;32.70;;;;;;;4.10;71.45;103365.34;5057608;28;20107;-80
2022/01/25 11:37:53;;;;;;;73.53;31.53;;;;;;;4.12;72.18;103372.25;5054686;28;20030;-78
2022/01/25 11:40:27;;;;;;;75.47;32.13;;;;;;;4.14;71.82;103368.06;5056452;28;20048;-78
2022/01/25 11:42:57;;;;;;;68.88;31.27;;;;;;;4.14;71.72;103374.13;5050997;28;21047;-79
2022/01/25 11:45:28;;;;;;;67.88;30.92;;;;;;;4.13;70.94;103374.03;5048948;28;20036;-78
2022/01/25 11:47:54;;;;;;;72.13;31.27;;;;;;;4.11;70.80;103379.13;5053648;28;20037;-78
2022/01/25 11:50:26;;;;;;;71.27;30.80;;;;;;;4.09;71.00;103366.19;5050284;28;20033;-78
2022/01/25 11:52:54;;;;;;;73.13;31.77;;;;;;;4.10;71.08;103377.38;5056309;28;20059;-78
2022/01/25 11:55:24;;;;;;;73.75;31.88;;;;;;;4.08;71.42;103373.84;5056311;28;20029;-78
2022/01/25 11:58:03;;;;;;;72.63;32.03;;;;;;;4.06;71.11;103371.22;5056458;28;20057;-80
2022/01/25 12:00:39;;;;;;;68.93;30.63;;;;;;;4.07;71.66;103366.94;5056080;28;20040;-79
2022/01/25 12:03:34;;;;;;;75.22;31.95;;;;;;;4.09;72.33;103367.88;5053980;28;20063;-78
2022/01/25 12:06:07;;;;;;;77.70;31.55;;;;;;;4.05;71.14;103361.72;5053669;28;20016;-78
2022/01/25 12:08:52;;;;;;;69.00;30.17;;;;;;;4.05;71.09;103361.72;5053666;28;20060;-78
2022/01/25 12:11:36;;;;;;;74.00;33.07;;;;;;;4.06;71.73;103360.00;5054790;28;20179;-78
2022/01/25 12:14:17;;;;;;;69.35;30.67;;;;;;;4.04;71.60;103357.38;5057035;28;20154;-78
2022/01/25 12:16:45;;;;;;;72.00;29.83;;;;;;;4.03;71.22;103350.47;5056995;28;20036;-78
2022/01/25 12:19:23;;;;;;;68.70;30.35;;;;;;;4.02;70.95;103343.56;5057101;28;20045;-78
2022/01/25 12:21:53;;;;;;;68.37;30.03;;;;;;;4.03;71.67;103342.75;5055001;28;20021;-78
2022/01/25 12:24:24;;;;;;;72.07;30.83;;;;;;;4.01;71.09;103341.78;5056447;28;20398;-78
2022/01/25 12:27:14;;;;;;;67.10;29.90;;;;;;;4.02;71.74;103348.72;5056734;28;20055;-78
2022/01/25 12:30:12;;;;;;;68.32;31.15;;;;;;;4.01;71.18;103343.50;5057188;28;20040;-78
2022/01/25 12:32:50;;;;;;;74.40;31.17;;;;;;;4.03;71.79;103331.53;5053109;28;20059;-78
2022/01/25 12:35:20;;;;;;;72.25;31.13;;;;;;;4.03;71.47;103329.88;5061999;28;20091;-78
2022/01/25 12:37:54;;;;;;;73.97;30.67;;;;;;;4.05;72.03;103330.81;5060362;28;20033;-79
2022/01/25 12:40:26;;;;;;;69.30;31.87;;;;;;;4.08;72.11;103335.19;5057124;28;20499;-79
2022/01/25 12:43:03;;;;;;;69.47;30.85;;;;;;;4.09;71.45;103330.13;5058697;28;20048;-78
2022/01/25 12:45:32;;;;;;;69.63;30.70;;;;;;;4.11;71.08;103327.59;5061992;28;20043;-79
2022/01/25 12:48:04;;;;;;;70.57;30.97;;;;;;;4.13;70.09;103330.22;5060077;28;20560;-78
2022/01/25 12:50:29;;;;;;;;;;;;;;;4.20;72.86;103327.09;5059498;28;20032;-78
2022/01/25 12:52:58;;;;;;;72.32;29.33;;;;;;;4.15;70.47;103320.88;5058196;28;19927;-78
2022/01/25 12:55:30;;;;;;;70.95;31.05;;;;;;;4.16;71.00;103314.91;5060809;28;20063;-78
2022/01/25 12:57:56;;;;;;;70.17;30.90;;;;;;;4.16;71.28;103320.06;5062058;28;20029;-78
2022/01/25 13:00:28;;;;;;;68.45;30.42;;;;;;;4.16;71.21;103320.97;5057526;28;20058;-79
2022/01/25 13:03:11;;;;;;;71.45;29.88;;;;;;;4.16;72.14;103320.06;5060276;28;21063;-78